Avoca, Michigan
Current Conditions -  °F | °C
As of 3:18 AM on Thursday 18 Dec 2014 (Local Time) from KPHN Reporting Station
Haze Haze  
Wind Chill: -6°   Ceiling: 800
Heat Index: -2°   Visibility: 4mi
Dew Point: -3°   Wind: 7mph
Humidity: 93%   Direction: 270°W
Pressure: 30.16"   Gusts: NA
Location:  43.06°N, 82.69°W
Report Text: KPHN 180818Z AUTO 27006KT 4SM BR OVC008 M02/M03 A3016 RMK AO2
Loading
Personal Weather Stations






























Interactive Weather Map New forecast layout! Learn more

10-Day Weather Forecast

Advertisements
Track Severe Weather on mobile